TimeMST,TemperatureF,Dew PointF,Humidity,Sea Level PressureIn,VisibilityMPH,Wind Direction,Wind SpeedMPH,Gust SpeedMPH,PrecipitationIn,Events,Conditions,WindDirDegrees,DateUTC
12:15 AM,-14.8,-27.4,53,30.10,10.0,Calm,Calm,-,N/A,,Clear,0,2012-12-30 07:15:00
1:35 AM,-11.2,-20.2,64,30.09,8.0,Calm,Calm,-,N/A,,Clear,0,2012-12-30 08:35:00
1:55 AM,-14.8,-25.6,58,30.10,10.0,Calm,Calm,-,N/A,,Clear,0,2012-12-30 08:55:00
2:35 AM,-13.0,-20.2,70,30.11,10.0,Calm,Calm,-,N/A,,Clear,0,2012-12-30 09:35:00
2:55 AM,-13.0,-22.0,64,30.11,10.0,Calm,Calm,-,N/A,,Clear,0,2012-12-30 09:55:00
3:15 AM,-13.0,-23.8,59,30.11,10.0,Calm,Calm,-,N/A,,Clear,0,2012-12-30 10:15:00
3:35 AM,-11.2,-18.4,70,30.12,10.0,Calm,Calm,-,N/A,,Clear,0,2012-12-30 10:35:00
3:55 AM,-11.2,-23.8,54,30.12,10.0,Calm,Calm,-,N/A,,Clear,0,2012-12-30 10:55:00
4:15 AM,-11.2,-11.2,100,30.11,10.0,Calm,Calm,-,N/A,,Clear,0,2012-12-30 11:15:00
4:35 AM,-11.2,-25.6,49,30.10,10.0,Calm,Calm,-,N/A,,Clear,0,2012-12-30 11:35:00
5:15 AM,-14.8,-20.2,77,30.10,10.0,Calm,Calm,-,N/A,,Clear,0,2012-12-30 12:15:00
5:35 AM,-13.0,-20.2,70,30.10,10.0,Calm,Calm,-,N/A,,Clear,0,2012-12-30 12:35:00
6:15 AM,-13.0,-13.0,100,30.10,10.0,Calm,Calm,-,N/A,,Clear,0,2012-12-30 13:15:00
6:35 AM,-13.0,-9999,N/A,30.09,10.0,Calm,Calm,-,N/A,,Clear,0,2012-12-30 13:35:00
6:55 AM,-14.8,-27.4,53,30.09,10.0,Calm,Calm,-,N/A,,Clear,0,2012-12-30 13:55:00
7:15 AM,-13.0,-9999,N/A,30.09,10.0,Calm,Calm,-,N/A,,Clear,0,2012-12-30 14:15:00
7:55 AM,-14.8,-9999,N/A,30.09,10.0,Calm,Calm,-,N/A,,Clear,0,2012-12-30 14:55:00
8:15 AM,-11.2,-9999,N/A,30.10,10.0,Calm,Calm,-,N/A,,Clear,0,2012-12-30 15:15:00
8:55 AM,-9.4,-27.4,41,30.10,10.0,SE,3.5,-,N/A,,Clear,140,2012-12-30 15:55:00
9:15 AM,-9.4,-25.6,45,30.10,10.0,SSE,3.5,-,N/A,,Clear,150,2012-12-30 16:15:00
9:35 AM,-7.6,-18.4,59,30.10,10.0,Calm,Calm,-,N/A,,Partly Cloudy,0,2012-12-30 16:35:00
9:55 AM,-5.8,-18.4,55,30.10,10.0,Calm,Calm,-,N/A,,Scattered Clouds,0,2012-12-30 16:55:00
10:15 AM,-5.8,-16.6,60,30.10,10.0,Calm,Calm,-,N/A,,Partly Cloudy,0,2012-12-30 17:15:00
10:35 AM,-4.0,-13.0,65,30.09,10.0,Calm,Calm,-,N/A,,Scattered Clouds,0,2012-12-30 17:35:00
10:55 AM,-0.4,-2.2,92,30.08,10.0,Calm,Calm,-,N/A,,Mostly Cloudy,0,2012-12-30 17:55:00
11:15 AM,-0.4,-20.2,39,30.06,10.0,Calm,Calm,-,N/A,,Overcast,0,2012-12-30 18:15:00
11:35 AM,1.4,-7.6,66,30.05,10.0,Calm,Calm,-,N/A,,Overcast,0,2012-12-30 18:35:00
11:55 AM,3.2,-25.6,25,30.03,10.0,West,3.5,-,N/A,,Overcast,260,2012-12-30 18:55:00
12:15 PM,5.0,-22.0,28,30.01,10.0,Calm,Calm,-,N/A,,Overcast,0,2012-12-30 19:15:00
12:35 PM,6.8,-23.8,23,30.00,10.0,SSE,3.5,-,N/A,,Overcast,150,2012-12-30 19:35:00
12:55 PM,6.8,-20.2,28,29.99,10.0,Calm,Calm,-,N/A,,Overcast,0,2012-12-30 19:55:00
1:15 PM,8.6,-16.6,31,29.98,10.0,West,3.5,-,N/A,,Overcast,270,2012-12-30 20:15:00
1:35 PM,10.4,-11.2,37,29.96,10.0,WNW,5.8,-,N/A,,Overcast,290,2012-12-30 20:35:00
1:55 PM,10.4,-5.8,48,29.95,10.0,Calm,Calm,-,N/A,,Scattered Clouds,0,2012-12-30 20:55:00
2:15 PM,10.4,-4.0,52,29.94,10.0,Calm,Calm,-,N/A,,Clear,0,2012-12-30 21:15:00
2:35 PM,12.2,3.2,67,29.94,10.0,Calm,Calm,-,N/A,,Clear,0,2012-12-30 21:35:00
2:55 PM,12.2,-2.2,53,29.94,10.0,SE,3.5,-,N/A,,Clear,140,2012-12-30 21:55:00
3:55 PM,14.0,-0.4,53,29.94,10.0,Calm,Calm,-,N/A,,Mostly Cloudy,0,2012-12-30 22:55:00
4:15 PM,15.8,1.4,53,29.93,10.0,Calm,Calm,-,N/A,,Overcast,0,2012-12-30 23:15:00
4:35 PM,14.0,-2.2,49,29.93,10.0,Calm,Calm,-,N/A,,Scattered Clouds,0,2012-12-30 23:35:00
4:55 PM,14.0,-5.8,41,29.92,10.0,East,3.5,-,N/A,,Clear,80,2012-12-30 23:55:00
5:15 PM,12.2,-11.2,34,29.91,10.0,East,4.6,-,N/A,,Clear,80,2012-12-31 00:15:00
5:35 PM,8.6,-18.4,28,29.90,10.0,Calm,Calm,-,N/A,,Clear,0,2012-12-31 00:35:00
5:55 PM,10.4,-20.2,24,29.90,10.0,Calm,Calm,-,N/A,,Clear,0,2012-12-31 00:55:00
6:15 PM,6.8,-16.6,34,29.90,10.0,Calm,Calm,-,N/A,,Clear,0,2012-12-31 01:15:00
6:35 PM,8.6,-25.6,20,29.89,10.0,Calm,Calm,-,N/A,,Partly Cloudy,0,2012-12-31 01:35:00
6:55 PM,6.8,-9.4,48,29.90,10.0,Calm,Calm,-,N/A,,Partly Cloudy,0,2012-12-31 01:55:00
7:15 PM,6.8,-2.2,67,29.90,10.0,Calm,Calm,-,N/A,,Mostly Cloudy,0,2012-12-31 02:15:00
7:35 PM,6.8,-5.8,56,29.90,10.0,Calm,Calm,-,N/A,,Overcast,0,2012-12-31 02:35:00
7:55 PM,6.8,-4.0,61,29.91,10.0,Calm,Calm,-,N/A,,Mostly Cloudy,0,2012-12-31 02:55:00
8:15 PM,6.8,-2.2,67,29.90,10.0,Calm,Calm,-,N/A,,Overcast,0,2012-12-31 03:15:00
8:35 PM,6.8,-2.2,67,29.90,10.0,Calm,Calm,-,N/A,,Overcast,0,2012-12-31 03:35:00
8:55 PM,5.0,-4.0,66,29.89,10.0,Calm,Calm,-,N/A,,Mostly Cloudy,0,2012-12-31 03:55:00
9:15 PM,3.2,-2.2,78,29.89,10.0,Calm,Calm,-,N/A,,Scattered Clouds,0,2012-12-31 04:15:00
9:35 PM,3.2,-2.2,78,29.88,10.0,Calm,Calm,-,N/A,,Mostly Cloudy,0,2012-12-31 04:35:00
9:55 PM,5.0,-2.2,72,29.87,10.0,Calm,Calm,-,N/A,,Mostly Cloudy,0,2012-12-31 04:55:00
10:15 PM,5.0,-2.2,72,29.87,10.0,Calm,Calm,-,N/A,,Overcast,0,2012-12-31 05:15:00
10:35 PM,5.0,-2.2,72,29.87,10.0,Calm,Calm,-,N/A,,Overcast,0,2012-12-31 05:35:00
10:55 PM,6.8,-0.4,72,29.88,10.0,Calm,Calm,-,N/A,,Overcast,0,2012-12-31 05:55:00
11:15 PM,6.8,-2.2,67,29.88,10.0,Calm,Calm,-,N/A,,Overcast,0,2012-12-31 06:15:00
11:35 PM,6.8,-0.4,72,29.87,10.0,Calm,Calm,-,N/A,,Overcast,0,2012-12-31 06:35:00